sensor_id;sensor_type;location;lat;lon;timestamp;temperature;humidity
49413;DHT22;35493;50.276;9.372;2022-12-05T00:02:21;4.10;88.60
49413;DHT22;35493;50.276;9.372;2022-12-05T00:04:48;4.00;88.60
49413;DHT22;35493;50.276;9.372;2022-12-05T00:07:16;4.10;88.60
49413;DHT22;35493;50.276;9.372;2022-12-05T00:09:43;4.10;88.70
49413;DHT22;35493;50.276;9.372;2022-12-05T00:12:10;4.10;88.70
49413;DHT22;35493;50.276;9.372;2022-12-05T00:14:43;4.10;88.70
49413;DHT22;35493;50.276;9.372;2022-12-05T00:17:10;4.10;88.80
49413;DHT22;35493;50.276;9.372;2022-12-05T00:19:38;4.00;88.90
49413;DHT22;35493;50.276;9.372;2022-12-05T00:22:05;4.10;89.00
49413;DHT22;35493;50.276;9.372;2022-12-05T00:24:33;4.00;88.70
49413;DHT22;35493;50.276;9.372;2022-12-05T00:27:00;4.10;88.90
49413;DHT22;35493;50.276;9.372;2022-12-05T00:29:27;4.10;88.80
49413;DHT22;35493;50.276;9.372;2022-12-05T00:31:54;4.10;88.70
49413;DHT22;35493;50.276;9.372;2022-12-05T00:34:21;4.10;88.90
49413;DHT22;35493;50.276;9.372;2022-12-05T00:36:48;4.10;88.90
49413;DHT22;35493;50.276;9.372;2022-12-05T00:39:15;4.10;88.80
49413;DHT22;35493;50.276;9.372;2022-12-05T00:41:43;4.10;88.90
49413;DHT22;35493;50.276;9.372;2022-12-05T00:44:12;4.10;88.90
49413;DHT22;35493;50.276;9.372;2022-12-05T00:46:39;4.10;88.80
49413;DHT22;35493;50.276;9.372;2022-12-05T00:49:06;4.10;88.80
49413;DHT22;35493;50.276;9.372;2022-12-05T00:51:35;4.10;88.90
49413;DHT22;35493;50.276;9.372;2022-12-05T00:54:05;4.10;88.90
49413;DHT22;35493;50.276;9.372;2022-12-05T00:56:33;4.10;89.00
49413;DHT22;35493;50.276;9.372;2022-12-05T00:59:02;4.10;89.10
49413;DHT22;35493;50.276;9.372;2022-12-05T01:01:32;4.10;89.10
49413;DHT22;35493;50.276;9.372;2022-12-05T01:04:02;4.10;89.10
49413;DHT22;35493;50.276;9.372;2022-12-05T01:06:29;4.10;89.10
49413;DHT22;35493;50.276;9.372;2022-12-05T01:08:56;4.10;89.10
49413;DHT22;35493;50.276;9.372;2022-12-05T01:11:24;4.10;89.10
49413;DHT22;35493;50.276;9.372;2022-12-05T01:13:51;4.10;89.10
49413;DHT22;35493;50.276;9.372;2022-12-05T01:16:22;4.00;89.10
49413;DHT22;35493;50.276;9.372;2022-12-05T01:18:49;4.10;89.10
49413;DHT22;35493;50.276;9.372;2022-12-05T01:21:17;4.10;89.10
49413;DHT22;35493;50.276;9.372;2022-12-05T01:23:44;4.10;89.20
49413;DHT22;35493;50.276;9.372;2022-12-05T01:26:13;4.10;89.20
49413;DHT22;35493;50.276;9.372;2022-12-05T01:28:41;4.10;89.20
49413;DHT22;35493;50.276;9.372;2022-12-05T01:31:17;4.10;89.20
49413;DHT22;35493;50.276;9.372;2022-12-05T01:33:48;4.10;89.10
49413;DHT22;35493;50.276;9.372;2022-12-05T01:36:15;4.10;89.10
49413;DHT22;35493;50.276;9.372;2022-12-05T01:38:43;4.10;89.10
49413;DHT22;35493;50.276;9.372;2022-12-05T01:41:13;4.10;89.10
49413;DHT22;35493;50.276;9.372;2022-12-05T01:43:59;4.10;89.10
49413;DHT22;35493;50.276;9.372;2022-12-05T01:46:29;4.10;89.20
49413;DHT22;35493;50.276;9.372;2022-12-05T01:49:02;4.10;89.40
49413;DHT22;35493;50.276;9.372;2022-12-05T01:51:29;4.00;89.30
49413;DHT22;35493;50.276;9.372;2022-12-05T01:53:59;4.00;89.30
49413;DHT22;35493;50.276;9.372;2022-12-05T01:56:28;4.10;89.40
49413;DHT22;35493;50.276;9.372;2022-12-05T01:58:58;4.00;89.30
49413;DHT22;35493;50.276;9.372;2022-12-05T02:01:28;4.10;89.40
49413;DHT22;35493;50.276;9.372;2022-12-05T02:03:58;4.00;89.50
49413;DHT22;35493;50.276;9.372;2022-12-05T02:06:28;4.00;89.50
49413;DHT22;35493;50.276;9.372;2022-12-05T02:08:55;4.00;89.60
49413;DHT22;35493;50.276;9.372;2022-12-05T02:11:24;4.00;89.70
49413;DHT22;35493;50.276;9.372;2022-12-05T02:14:09;4.00;89.60
49413;DHT22;35493;50.276;9.372;2022-12-05T02:16:46;4.00;89.70
49413;DHT22;35493;50.276;9.372;2022-12-05T02:22:36;4.00;89.70
49413;DHT22;35493;50.276;9.372;2022-12-05T02:25:21;4.00;89.70
49413;DHT22;35493;50.276;9.372;2022-12-05T02:28:19;4.00;89.70
49413;DHT22;35493;50.276;9.372;2022-12-05T02:30:57;4.00;89.70
49413;DHT22;35493;50.276;9.372;2022-12-05T02:33:33;4.00;89.70
49413;DHT22;35493;50.276;9.372;2022-12-05T02:36:04;4.00;89.70
49413;DHT22;35493;50.276;9.372;2022-12-05T02:38:37;4.00;89.70
49413;DHT22;35493;50.276;9.372;2022-12-05T02:41:11;3.90;89.80
49413;DHT22;35493;50.276;9.372;2022-12-05T02:43:43;4.00;89.80
49413;DHT22;35493;50.276;9.372;2022-12-05T02:46:18;4.00;89.80
49413;DHT22;35493;50.276;9.372;2022-12-05T02:48:46;4.00;89.90
49413;DHT22;35493;50.276;9.372;2022-12-05T02:51:18;4.00;89.80
49413;DHT22;35493;50.276;9.372;2022-12-05T02:53:47;4.10;89.50
49413;DHT22;35493;50.276;9.372;2022-12-05T02:56:15;4.10;89.70
49413;DHT22;35493;50.276;9.372;2022-12-05T02:58:47;4.10;89.70
49413;DHT22;35493;50.276;9.372;2022-12-05T03:01:18;4.00;89.60
49413;DHT22;35493;50.276;9.372;2022-12-05T03:03:47;4.00;89.70
49413;DHT22;35493;50.276;9.372;2022-12-05T03:06:16;4.10;89.70
49413;DHT22;35493;50.276;9.372;2022-12-05T03:08:52;4.10;89.70
49413;DHT22;35493;50.276;9.372;2022-12-05T03:11:21;4.00;89.80
49413;DHT22;35493;50.276;9.372;2022-12-05T03:13:51;4.00;89.80
49413;DHT22;35493;50.276;9.372;2022-12-05T03:16:24;4.00;89.80
49413;DHT22;35493;50.276;9.372;2022-12-05T03:18:55;4.00;89.80
49413;DHT22;35493;50.276;9.372;2022-12-05T03:21:29;4.00;89.70
49413;DHT22;35493;50.276;9.372;2022-12-05T03:24:01;4.00;89.80
49413;DHT22;35493;50.276;9.372;2022-12-05T03:26:36;4.00;89.90
49413;DHT22;35493;50.276;9.372;2022-12-05T03:29:19;4.00;89.90
49413;DHT22;35493;50.276;9.372;2022-12-05T03:31:56;4.00;90.00
49413;DHT22;35493;50.276;9.372;2022-12-05T03:34:42;4.00;90.00
49413;DHT22;35493;50.276;9.372;2022-12-05T03:37:22;4.00;90.10
49413;DHT22;35493;50.276;9.372;2022-12-05T03:40:03;4.00;90.10
49413;DHT22;35493;50.276;9.372;2022-12-05T03:42:34;4.00;90.00
49413;DHT22;35493;50.276;9.372;2022-12-05T03:45:07;4.00;90.00
49413;DHT22;35493;50.276;9.372;2022-12-05T03:47:43;4.10;90.00
49413;DHT22;35493;50.276;9.372;2022-12-05T03:50:13;4.10;90.00
49413;DHT22;35493;50.276;9.372;2022-12-05T03:52:46;4.10;89.90
49413;DHT22;35493;50.276;9.372;2022-12-05T03:55:15;4.10;90.00
49413;DHT22;35493;50.276;9.372;2022-12-05T03:57:47;4.10;90.00
49413;DHT22;35493;50.276;9.372;2022-12-05T04:00:20;4.00;90.00
49413;DHT22;35493;50.276;9.372;2022-12-05T04:02:50;4.10;90.00
49413;DHT22;35493;50.276;9.372;2022-12-05T04:05:20;4.10;90.10
49413;DHT22;35493;50.276;9.372;2022-12-05T04:07:51;4.10;90.00
49413;DHT22;35493;50.276;9.372;2022-12-05T04:10:24;4.10;90.10
49413;DHT22;35493;50.276;9.372;2022-12-05T04:12:54;4.00;90.20
49413;DHT22;35493;50.276;9.372;2022-12-05T04:15:24;4.00;90.30
49413;DHT22;35493;50.276;9.372;2022-12-05T04:17:57;4.00;90.30
49413;DHT22;35493;50.276;9.372;2022-12-05T04:20:26;4.00;90.30
49413;DHT22;35493;50.276;9.372;2022-12-05T04:23:12;4.00;90.20
49413;DHT22;35493;50.276;9.372;2022-12-05T04:25:54;4.00;90.20
49413;DHT22;35493;50.276;9.372;2022-12-05T04:28:26;4.00;90.30
49413;DHT22;35493;50.276;9.372;2022-12-05T04:31:02;4.00;90.40
49413;DHT22;35493;50.276;9.372;2022-12-05T04:33:40;4.00;90.40
49413;DHT22;35493;50.276;9.372;2022-12-05T04:36:12;4.00;90.50
49413;DHT22;35493;50.276;9.372;2022-12-05T04:38:44;4.00;90.40
49413;DHT22;35493;50.276;9.372;2022-12-05T04:41:16;4.00;90.40
49413;DHT22;35493;50.276;9.372;2022-12-05T04:43:46;4.00;90.40
49413;DHT22;35493;50.276;9.372;2022-12-05T04:46:16;4.00;90.50
49413;DHT22;35493;50.276;9.372;2022-12-05T04:48:50;4.00;90.40
49413;DHT22;35493;50.276;9.372;2022-12-05T04:51:22;4.00;90.40
49413;DHT22;35493;50.276;9.372;2022-12-05T04:53:55;4.10;90.40
49413;DHT22;35493;50.276;9.372;2022-12-05T04:56:26;4.10;90.40
49413;DHT22;35493;50.276;9.372;2022-12-05T04:58:55;4.10;90.50
49413;DHT22;35493;50.276;9.372;2022-12-05T05:01:25;4.10;90.40
49413;DHT22;35493;50.276;9.372;2022-12-05T05:03:58;4.10;90.40
49413;DHT22;35493;50.276;9.372;2022-12-05T05:06:28;4.10;90.30
49413;DHT22;35493;50.276;9.372;2022-12-05T05:08:56;4.10;90.30
49413;DHT22;35493;50.276;9.372;2022-12-05T05:11:25;4.10;90.30
49413;DHT22;35493;50.276;9.372;2022-12-05T05:13:53;4.10;90.30
49413;DHT22;35493;50.276;9.372;2022-12-05T05:16:22;4.10;90.30
49413;DHT22;35493;50.276;9.372;2022-12-05T05:18:50;4.10;90.30
49413;DHT22;35493;50.276;9.372;2022-12-05T05:21:21;4.10;90.30
49413;DHT22;35493;50.276;9.372;2022-12-05T05:23:49;4.10;90.40
49413;DHT22;35493;50.276;9.372;2022-12-05T05:26:17;4.10;90.40
49413;DHT22;35493;50.276;9.372;2022-12-05T05:28:44;4.10;90.50
49413;DHT22;35493;50.276;9.372;2022-12-05T05:31:12;4.10;90.60
49413;DHT22;35493;50.276;9.372;2022-12-05T05:33:39;4.10;90.60
49413;DHT22;35493;50.276;9.372;2022-12-05T05:36:08;4.10;90.60
49413;DHT22;35493;50.276;9.372;2022-12-05T05:38:38;4.10;90.60
49413;DHT22;35493;50.276;9.372;2022-12-05T05:41:10;4.10;90.60
49413;DHT22;35493;50.276;9.372;2022-12-05T05:43:39;4.10;90.50
49413;DHT22;35493;50.276;9.372;2022-12-05T05:46:06;4.10;90.60
49413;DHT22;35493;50.276;9.372;2022-12-05T05:48:33;4.10;90.60
49413;DHT22;35493;50.276;9.372;2022-12-05T05:51:00;4.10;90.60
49413;DHT22;35493;50.276;9.372;2022-12-05T05:53:30;4.20;90.50
49413;DHT22;35493;50.276;9.372;2022-12-05T05:56:03;4.20;90.50
49413;DHT22;35493;50.276;9.372;2022-12-05T05:58:30;4.10;90.50
49413;DHT22;35493;50.276;9.372;2022-12-05T06:01:02;4.10;90.60
49413;DHT22;35493;50.276;9.372;2022-12-05T06:03:29;4.10;90.60
49413;DHT22;35493;50.276;9.372;2022-12-05T06:05:56;4.10;90.60
49413;DHT22;35493;50.276;9.372;2022-12-05T06:08:24;4.10;90.60
49413;DHT22;35493;50.276;9.372;2022-12-05T06:10:51;4.10;90.60
49413;DHT22;35493;50.276;9.372;2022-12-05T06:13:19;4.10;90.60
49413;DHT22;35493;50.276;9.372;2022-12-05T06:15:46;4.10;90.60
49413;DHT22;35493;50.276;9.372;2022-12-05T06:18:13;4.10;90.60
49413;DHT22;35493;50.276;9.372;2022-12-05T06:20:40;4.10;90.60
49413;DHT22;35493;50.276;9.372;2022-12-05T06:23:08;4.10;90.60
49413;DHT22;35493;50.276;9.372;2022-12-05T06:25:35;4.10;90.50
49413;DHT22;35493;50.276;9.372;2022-12-05T06:28:02;4.10;90.50
49413;DHT22;35493;50.276;9.372;2022-12-05T06:30:30;4.10;90.50
49413;DHT22;35493;50.276;9.372;2022-12-05T06:32:57;4.10;90.50
49413;DHT22;35493;50.276;9.372;2022-12-05T06:35:24;4.10;90.30
49413;DHT22;35493;50.276;9.372;2022-12-05T06:37:51;4.10;90.50
49413;DHT22;35493;50.276;9.372;2022-12-05T06:40:19;4.10;90.50
49413;DHT22;35493;50.276;9.372;2022-12-05T06:42:46;4.10;90.50
49413;DHT22;35493;50.276;9.372;2022-12-05T06:45:13;4.10;90.60
49413;DHT22;35493;50.276;9.372;2022-12-05T06:47:41;4.10;90.70
49413;DHT22;35493;50.276;9.372;2022-12-05T06:50:09;4.10;90.60
49413;DHT22;35493;50.276;9.372;2022-12-05T06:52:39;4.10;90.70
49413;DHT22;35493;50.276;9.372;2022-12-05T06:55:06;4.10;90.70
49413;DHT22;35493;50.276;9.372;2022-12-05T06:57:33;4.20;90.60
49413;DHT22;35493;50.276;9.372;2022-12-05T07:00:01;4.20;90.70
49413;DHT22;35493;50.276;9.372;2022-12-05T07:02:44;4.20;90.60
49413;DHT22;35493;50.276;9.372;2022-12-05T07:05:11;4.20;90.60
49413;DHT22;35493;50.276;9.372;2022-12-05T07:07:38;4.20;90.70
49413;DHT22;35493;50.276;9.372;2022-12-05T07:10:06;4.20;90.70
49413;DHT22;35493;50.276;9.372;2022-12-05T07:12:34;4.20;90.70
49413;DHT22;35493;50.276;9.372;2022-12-05T07:15:01;4.20;90.80
49413;DHT22;35493;50.276;9.372;2022-12-05T07:17:28;4.20;90.70
49413;DHT22;35493;50.276;9.372;2022-12-05T07:19:56;4.20;90.80
49413;DHT22;35493;50.276;9.372;2022-12-05T07:22:23;4.20;90.80
49413;DHT22;35493;50.276;9.372;2022-12-05T07:24:50;4.20;90.80
49413;DHT22;35493;50.276;9.372;2022-12-05T07:27:18;4.20;90.80
49413;DHT22;35493;50.276;9.372;2022-12-05T07:29:45;4.20;90.80
49413;DHT22;35493;50.276;9.372;2022-12-05T07:32:12;4.20;90.70
49413;DHT22;35493;50.276;9.372;2022-12-05T07:34:39;4.20;90.80
49413;DHT22;35493;50.276;9.372;2022-12-05T07:37:08;4.20;90.90
49413;DHT22;35493;50.276;9.372;2022-12-05T07:39:35;4.20;90.90
49413;DHT22;35493;50.276;9.372;2022-12-05T07:42:02;4.20;90.90
49413;DHT22;35493;50.276;9.372;2022-12-05T07:44:29;4.20;91.00
49413;DHT22;35493;50.276;9.372;2022-12-05T07:46:56;4.30;90.80
49413;DHT22;35493;50.276;9.372;2022-12-05T07:49:24;4.30;90.60
49413;DHT22;35493;50.276;9.372;2022-12-05T07:51:51;4.30;90.80
49413;DHT22;35493;50.276;9.372;2022-12-05T07:54:20;4.30;90.80
49413;DHT22;35493;50.276;9.372;2022-12-05T07:56:47;4.30;90.90
49413;DHT22;35493;50.276;9.372;2022-12-05T07:59:13;4.30;90.80
49413;DHT22;35493;50.276;9.372;2022-12-05T08:01:41;4.30;90.80
49413;DHT22;35493;50.276;9.372;2022-12-05T08:04:08;4.30;90.80
49413;DHT22;35493;50.276;9.372;2022-12-05T08:06:35;4.30;90.60
49413;DHT22;35493;50.276;9.372;2022-12-05T08:09:03;4.30;90.60
49413;DHT22;35493;50.276;9.372;2022-12-05T08:11:32;4.30;90.70
49413;DHT22;35493;50.276;9.372;2022-12-05T08:14:01;4.30;90.60
49413;DHT22;35493;50.276;9.372;2022-12-05T08:16:29;4.30;90.40
49413;DHT22;35493;50.276;9.372;2022-12-05T08:18:59;4.40;90.30
49413;DHT22;35493;50.276;9.372;2022-12-05T08:21:27;4.40;90.20
49413;DHT22;35493;50.276;9.372;2022-12-05T08:23:54;4.40;90.20
49413;DHT22;35493;50.276;9.372;2022-12-05T08:26:23;4.40;90.30
49413;DHT22;35493;50.276;9.372;2022-12-05T08:28:53;4.30;90.30
49413;DHT22;35493;50.276;9.372;2022-12-05T08:31:22;4.40;90.40
49413;DHT22;35493;50.276;9.372;2022-12-05T08:33:50;4.40;90.50
49413;DHT22;35493;50.276;9.372;2022-12-05T08:36:18;4.40;90.40
49413;DHT22;35493;50.276;9.372;2022-12-05T08:38:45;4.40;90.30
49413;DHT22;35493;50.276;9.372;2022-12-05T08:41:14;4.30;90.20
49413;DHT22;35493;50.276;9.372;2022-12-05T08:43:42;4.40;90.20
49413;DHT22;35493;50.276;9.372;2022-12-05T08:46:13;4.40;90.20
49413;DHT22;35493;50.276;9.372;2022-12-05T08:48:40;4.40;90.40
49413;DHT22;35493;50.276;9.372;2022-12-05T08:51:08;4.30;90.50
49413;DHT22;35493;50.276;9.372;2022-12-05T08:53:36;4.30;90.60
49413;DHT22;35493;50.276;9.372;2022-12-05T08:56:05;4.30;90.50
49413;DHT22;35493;50.276;9.372;2022-12-05T08:58:33;4.40;90.40
49413;DHT22;35493;50.276;9.372;2022-12-05T09:01:04;4.40;90.20
49413;DHT22;35493;50.276;9.372;2022-12-05T09:03:33;4.40;90.60
49413;DHT22;35493;50.276;9.372;2022-12-05T09:06:08;4.40;90.50
49413;DHT22;35493;50.276;9.372;2022-12-05T09:08:36;4.40;90.50
49413;DHT22;35493;50.276;9.372;2022-12-05T09:11:04;4.40;90.60
49413;DHT22;35493;50.276;9.372;2022-12-05T09:13:33;4.40;90.40
49413;DHT22;35493;50.276;9.372;2022-12-05T09:16:05;4.40;90.30
49413;DHT22;35493;50.276;9.372;2022-12-05T09:18:34;4.40;90.20
49413;DHT22;35493;50.276;9.372;2022-12-05T09:21:04;4.40;90.70
49413;DHT22;35493;50.276;9.372;2022-12-05T09:23:32;4.40;90.70
49413;DHT22;35493;50.276;9.372;2022-12-05T09:25:59;4.40;90.60
49413;DHT22;35493;50.276;9.372;2022-12-05T09:28:27;4.40;90.70
49413;DHT22;35493;50.276;9.372;2022-12-05T09:30:55;4.40;90.70
49413;DHT22;35493;50.276;9.372;2022-12-05T09:33:23;4.50;90.80
49413;DHT22;35493;50.276;9.372;2022-12-05T09:35:51;4.50;90.80
49413;DHT22;35493;50.276;9.372;2022-12-05T09:38:18;4.40;90.40
49413;DHT22;35493;50.276;9.372;2022-12-05T09:40:47;4.40;90.70
49413;DHT22;35493;50.276;9.372;2022-12-05T09:43:23;4.40;90.50
49413;DHT22;35493;50.276;9.372;2022-12-05T09:45:54;4.40;90.40
49413;DHT22;35493;50.276;9.372;2022-12-05T09:48:27;4.40;90.50
49413;DHT22;35493;50.276;9.372;2022-12-05T09:50:58;4.50;90.50
49413;DHT22;35493;50.276;9.372;2022-12-05T09:53:28;4.50;90.60
49413;DHT22;35493;50.276;9.372;2022-12-05T09:56:01;4.50;90.70
49413;DHT22;35493;50.276;9.372;2022-12-05T09:58:39;4.50;90.40
49413;DHT22;35493;50.276;9.372;2022-12-05T10:01:22;4.50;90.60
49413;DHT22;35493;50.276;9.372;2022-12-05T10:04:18;4.50;90.60
49413;DHT22;35493;50.276;9.372;2022-12-05T10:06:55;4.50;90.50
49413;DHT22;35493;50.276;9.372;2022-12-05T10:09:33;4.50;90.50
49413;DHT22;35493;50.276;9.372;2022-12-05T10:12:12;4.50;90.60
49413;DHT22;35493;50.276;9.372;2022-12-05T10:14:46;4.50;90.50
49413;DHT22;35493;50.276;9.372;2022-12-05T10:17:22;4.50;90.60
49413;DHT22;35493;50.276;9.372;2022-12-05T10:19:52;4.60;90.80
49413;DHT22;35493;50.276;9.372;2022-12-05T10:22:23;4.50;90.70
49413;DHT22;35493;50.276;9.372;2022-12-05T10:24:53;4.60;90.70
49413;DHT22;35493;50.276;9.372;2022-12-05T10:27:26;4.50;90.90
49413;DHT22;35493;50.276;9.372;2022-12-05T10:29:58;4.60;90.90
49413;DHT22;35493;50.276;9.372;2022-12-05T10:32:30;4.60;90.90
49413;DHT22;35493;50.276;9.372;2022-12-05T10:35:08;4.60;90.60
49413;DHT22;35493;50.276;9.372;2022-12-05T10:37:43;4.60;90.90
49413;DHT22;35493;50.276;9.372;2022-12-05T10:40:13;4.60;90.90
49413;DHT22;35493;50.276;9.372;2022-12-05T10:42:41;4.60;90.70
49413;DHT22;35493;50.276;9.372;2022-12-05T10:45:15;4.60;90.50
49413;DHT22;35493;50.276;9.372;2022-12-05T10:47:42;4.60;90.30
49413;DHT22;35493;50.276;9.372;2022-12-05T10:50:23;4.60;90.70
49413;DHT22;35493;50.276;9.372;2022-12-05T10:52:54;4.60;90.40
49413;DHT22;35493;50.276;9.372;2022-12-05T10:55:22;4.70;90.80
49413;DHT22;35493;50.276;9.372;2022-12-05T10:58:08;4.70;90.70
49413;DHT22;35493;50.276;9.372;2022-12-05T11:00:36;4.70;90.70
49413;DHT22;35493;50.276;9.372;2022-12-05T11:03:23;4.70;90.50
49413;DHT22;35493;50.276;9.372;2022-12-05T11:05:51;4.70;90.70
49413;DHT22;35493;50.276;9.372;2022-12-05T11:08:24;4.70;90.30
49413;DHT22;35493;50.276;9.372;2022-12-05T11:11:04;4.70;90.20
49413;DHT22;35493;50.276;9.372;2022-12-05T11:13:32;4.70;90.60
49413;DHT22;35493;50.276;9.372;2022-12-05T11:16:00;4.70;90.30
49413;DHT22;35493;50.276;9.372;2022-12-05T11:18:29;4.80;90.50
49413;DHT22;35493;50.276;9.372;2022-12-05T11:21:08;4.90;90.30
49413;DHT22;35493;50.276;9.372;2022-12-05T11:23:37;4.90;90.40
49413;DHT22;35493;50.276;9.372;2022-12-05T11:26:15;4.90;90.00
49413;DHT22;35493;50.276;9.372;2022-12-05T11:28:43;4.90;90.00
49413;DHT22;35493;50.276;9.372;2022-12-05T11:31:25;4.90;90.40
49413;DHT22;35493;50.276;9.372;2022-12-05T11:34:12;4.90;90.60
49413;DHT22;35493;50.276;9.372;2022-12-05T11:36:44;4.90;90.50
49413;DHT22;35493;50.276;9.372;2022-12-05T11:39:14;5.00;90.50
49413;DHT22;35493;50.276;9.372;2022-12-05T11:41:54;5.00;90.50
49413;DHT22;35493;50.276;9.372;2022-12-05T11:44:43;5.00;90.50
49413;DHT22;35493;50.276;9.372;2022-12-05T11:47:21;5.00;90.40
49413;DHT22;35493;50.276;9.372;2022-12-05T11:50:07;5.00;90.10
49413;DHT22;35493;50.276;9.372;2022-12-05T11:52:51;5.00;90.40
49413;DHT22;35493;50.276;9.372;2022-12-05T11:55:24;5.00;90.40
49413;DHT22;35493;50.276;9.372;2022-12-05T11:58:03;5.00;90.20
49413;DHT22;35493;50.276;9.372;2022-12-05T12:00:36;5.00;90.20
49413;DHT22;35493;50.276;9.372;2022-12-05T12:06:12;4.90;90.00
49413;DHT22;35493;50.276;9.372;2022-12-05T12:08:53;4.90;90.10
49413;DHT22;35493;50.276;9.372;2022-12-05T12:11:28;5.00;90.50
49413;DHT22;35493;50.276;9.372;2022-12-05T12:14:07;5.00;90.50
49413;DHT22;35493;50.276;9.372;2022-12-05T12:16:44;5.00;90.50
49413;DHT22;35493;50.276;9.372;2022-12-05T12:19:32;5.00;90.60
49413;DHT22;35493;50.276;9.372;2022-12-05T12:22:11;5.00;90.30
49413;DHT22;35493;50.276;9.372;2022-12-05T12:24:58;5.00;90.50
49413;DHT22;35493;50.276;9.372;2022-12-05T12:27:37;5.00;90.20
49413;DHT22;35493;50.276;9.372;2022-12-05T12:30:11;5.00;90.20
49413;DHT22;35493;50.276;9.372;2022-12-05T12:32:51;5.00;90.40
49413;DHT22;35493;50.276;9.372;2022-12-05T12:35:28;5.00;90.40
49413;DHT22;35493;50.276;9.372;2022-12-05T12:38:16;5.00;90.60
49413;DHT22;35493;50.276;9.372;2022-12-05T12:40:48;5.00;90.60
49413;DHT22;35493;50.276;9.372;2022-12-05T12:43:34;5.10;90.90
49413;DHT22;35493;50.276;9.372;2022-12-05T12:46:21;5.10;90.90
49413;DHT22;35493;50.276;9.372;2022-12-05T12:49:04;5.10;90.40
49413;DHT22;35493;50.276;9.372;2022-12-05T12:51:40;5.10;90.50
49413;DHT22;35493;50.276;9.372;2022-12-05T12:54:23;5.10;90.80
49413;DHT22;35493;50.276;9.372;2022-12-05T12:56:58;5.10;91.00
49413;DHT22;35493;50.276;9.372;2022-12-05T12:59:45;5.10;91.00
49413;DHT22;35493;50.276;9.372;2022-12-05T13:02:18;5.10;91.10
49413;DHT22;35493;50.276;9.372;2022-12-05T13:04:52;5.20;91.10
49413;DHT22;35493;50.276;9.372;2022-12-05T13:07:22;5.20;90.70
49413;DHT22;35493;50.276;9.372;2022-12-05T13:09:56;5.20;90.80
49413;DHT22;35493;50.276;9.372;2022-12-05T13:12:27;5.20;90.70
49413;DHT22;35493;50.276;9.372;2022-12-05T13:15:00;5.20;90.30
49413;DHT22;35493;50.276;9.372;2022-12-05T13:17:30;5.20;90.60
49413;DHT22;35493;50.276;9.372;2022-12-05T13:19:58;5.20;91.10
49413;DHT22;35493;50.276;9.372;2022-12-05T13:22:27;5.20;90.70
49413;DHT22;35493;50.276;9.372;2022-12-05T13:24:55;5.20;90.70
49413;DHT22;35493;50.276;9.372;2022-12-05T13:27:24;5.10;90.60
49413;DHT22;35493;50.276;9.372;2022-12-05T13:29:54;5.10;90.90
49413;DHT22;35493;50.276;9.372;2022-12-05T13:32:29;5.20;90.90
49413;DHT22;35493;50.276;9.372;2022-12-05T13:34:59;5.10;90.60
49413;DHT22;35493;50.276;9.372;2022-12-05T13:37:28;5.20;91.10
49413;DHT22;35493;50.276;9.372;2022-12-05T13:40:23;5.20;91.30
49413;DHT22;35493;50.276;9.372;2022-12-05T13:43:09;5.10;91.00
49413;DHT22;35493;50.276;9.372;2022-12-05T13:45:36;5.20;91.00
49413;DHT22;35493;50.276;9.372;2022-12-05T13:48:19;5.20;91.30
49413;DHT22;35493;50.276;9.372;2022-12-05T13:50:51;5.20;91.30
49413;DHT22;35493;50.276;9.372;2022-12-05T13:53:30;5.10;91.40
49413;DHT22;35493;50.276;9.372;2022-12-05T13:56:02;5.20;91.50
49413;DHT22;35493;50.276;9.372;2022-12-05T13:58:45;5.20;91.40
49413;DHT22;35493;50.276;9.372;2022-12-05T14:01:42;5.20;91.40
49413;DHT22;35493;50.276;9.372;2022-12-05T14:07:39;5.20;91.30
49413;DHT22;35493;50.276;9.372;2022-12-05T14:10:08;5.20;91.00
49413;DHT22;35493;50.276;9.372;2022-12-05T14:12:52;5.10;91.20
49413;DHT22;35493;50.276;9.372;2022-12-05T14:15:28;5.20;91.30
49413;DHT22;35493;50.276;9.372;2022-12-05T14:18:00;5.10;91.00
49413;DHT22;35493;50.276;9.372;2022-12-05T14:20:41;5.10;91.10
49413;DHT22;35493;50.276;9.372;2022-12-05T14:23:23;5.10;91.40
49413;DHT22;35493;50.276;9.372;2022-12-05T14:25:59;5.10;91.20
49413;DHT22;35493;50.276;9.372;2022-12-05T14:28:42;5.10;91.30
49413;DHT22;35493;50.276;9.372;2022-12-05T14:31:26;5.10;91.40
49413;DHT22;35493;50.276;9.372;2022-12-05T14:34:14;5.10;91.20
49413;DHT22;35493;50.276;9.372;2022-12-05T14:36:52;5.20;91.40
49413;DHT22;35493;50.276;9.372;2022-12-05T14:39:21;5.20;91.20
49413;DHT22;35493;50.276;9.372;2022-12-05T14:41:56;5.20;91.00
49413;DHT22;35493;50.276;9.372;2022-12-05T14:44:23;5.20;91.10
49413;DHT22;35493;50.276;9.372;2022-12-05T14:46:57;5.20;91.40
49413;DHT22;35493;50.276;9.372;2022-12-05T14:49:56;5.20;91.40
49413;DHT22;35493;50.276;9.372;2022-12-05T14:52:27;5.20;91.40
49413;DHT22;35493;50.276;9.372;2022-12-05T14:55:01;5.20;91.30
49413;DHT22;35493;50.276;9.372;2022-12-05T14:57:29;5.10;91.50
49413;DHT22;35493;50.276;9.372;2022-12-05T15:00:00;5.20;91.30
49413;DHT22;35493;50.276;9.372;2022-12-05T15:02:31;5.20;91.30
49413;DHT22;35493;50.276;9.372;2022-12-05T15:05:02;5.10;91.30
49413;DHT22;35493;50.276;9.372;2022-12-05T15:07:35;5.10;91.20
49413;DHT22;35493;50.276;9.372;2022-12-05T15:10:09;5.20;91.30
49413;DHT22;35493;50.276;9.372;2022-12-05T15:12:40;5.10;91.20
49413;DHT22;35493;50.276;9.372;2022-12-05T15:15:12;5.10;91.10
49413;DHT22;35493;50.276;9.372;2022-12-05T15:17:47;5.10;91.40
49413;DHT22;35493;50.276;9.372;2022-12-05T15:20:25;5.10;91.50
49413;DHT22;35493;50.276;9.372;2022-12-05T15:22:55;5.10;91.30
49413;DHT22;35493;50.276;9.372;2022-12-05T15:25:26;5.10;91.40
49413;DHT22;35493;50.276;9.372;2022-12-05T15:27:56;5.10;91.40
49413;DHT22;35493;50.276;9.372;2022-12-05T15:30:23;5.10;91.40
49413;DHT22;35493;50.276;9.372;2022-12-05T15:32:51;5.10;91.50
49413;DHT22;35493;50.276;9.372;2022-12-05T15:35:19;5.10;91.50
49413;DHT22;35493;50.276;9.372;2022-12-05T15:37:49;5.10;91.50
49413;DHT22;35493;50.276;9.372;2022-12-05T15:40:19;5.10;91.50
49413;DHT22;35493;50.276;9.372;2022-12-05T15:42:49;5.10;91.50
49413;DHT22;35493;50.276;9.372;2022-12-05T15:45:20;5.10;91.30
49413;DHT22;35493;50.276;9.372;2022-12-05T15:47:50;5.10;91.40
49413;DHT22;35493;50.276;9.372;2022-12-05T15:50:23;5.10;91.40
49413;DHT22;35493;50.276;9.372;2022-12-05T15:52:53;5.10;91.60
49413;DHT22;35493;50.276;9.372;2022-12-05T15:55:26;5.10;91.60
49413;DHT22;35493;50.276;9.372;2022-12-05T15:58:00;5.00;91.50
49413;DHT22;35493;50.276;9.372;2022-12-05T16:00:28;5.10;91.50
49413;DHT22;35493;50.276;9.372;2022-12-05T16:02:59;5.10;91.50
49413;DHT22;35493;50.276;9.372;2022-12-05T16:05:32;5.10;91.60
49413;DHT22;35493;50.276;9.372;2022-12-05T16:08:04;5.10;91.70
49413;DHT22;35493;50.276;9.372;2022-12-05T16:10:31;5.00;91.60
49413;DHT22;35493;50.276;9.372;2022-12-05T16:13:04;5.10;91.70
49413;DHT22;35493;50.276;9.372;2022-12-05T16:15:33;5.00;91.60
49413;DHT22;35493;50.276;9.372;2022-12-05T16:18:02;5.00;91.70
49413;DHT22;35493;50.276;9.372;2022-12-05T16:20:32;5.10;91.60
49413;DHT22;35493;50.276;9.372;2022-12-05T16:23:02;5.10;91.60
49413;DHT22;35493;50.276;9.372;2022-12-05T16:25:31;5.10;91.70